sensor_id;sensor_type;location;lat;lon;timestamp;P1;durP1;ratioP1;P2;durP2;ratioP2
71655;SDS011;59497;48.798;8.816;2022-10-31T00:01:48;4.30;;;2.37;;
71655;SDS011;59497;48.798;8.816;2022-10-31T00:04:13;7.30;;;2.20;;
71655;SDS011;59497;48.798;8.816;2022-10-31T00:06:39;4.88;;;2.80;;
71655;SDS011;59497;48.798;8.816;2022-10-31T00:09:04;5.53;;;2.28;;
71655;SDS011;59497;48.798;8.816;2022-10-31T00:11:29;6.47;;;2.80;;
71655;SDS011;59497;48.798;8.816;2022-10-31T00:13:54;5.90;;;2.63;;
71655;SDS011;59497;48.798;8.816;2022-10-31T00:16:23;6.30;;;2.00;;
71655;SDS011;59497;48.798;8.816;2022-10-31T00:18:49;4.82;;;2.70;;
71655;SDS011;59497;48.798;8.816;2022-10-31T00:21:15;6.10;;;1.93;;
71655;SDS011;59497;48.798;8.816;2022-10-31T00:23:40;6.53;;;2.53;;
71655;SDS011;59497;48.798;8.816;2022-10-31T00:26:05;7.03;;;2.50;;
71655;SDS011;59497;48.798;8.816;2022-10-31T00:28:31;4.07;;;2.45;;
71655;SDS011;59497;48.798;8.816;2022-10-31T00:31:00;6.38;;;2.40;;
71655;SDS011;59497;48.798;8.816;2022-10-31T00:33:26;6.17;;;2.70;;
71655;SDS011;59497;48.798;8.816;2022-10-31T00:35:51;6.87;;;2.67;;
71655;SDS011;59497;48.798;8.816;2022-10-31T00:38:16;5.87;;;2.53;;
71655;SDS011;59497;48.798;8.816;2022-10-31T00:40:41;6.45;;;2.67;;
71655;SDS011;59497;48.798;8.816;2022-10-31T00:43:06;5.80;;;3.50;;
71655;SDS011;59497;48.798;8.816;2022-10-31T00:45:32;5.83;;;3.57;;
71655;SDS011;59497;48.798;8.816;2022-10-31T00:47:57;8.93;;;3.93;;
71655;SDS011;59497;48.798;8.816;2022-10-31T00:50:22;5.03;;;3.50;;
71655;SDS011;59497;48.798;8.816;2022-10-31T00:52:47;6.07;;;3.60;;
71655;SDS011;59497;48.798;8.816;2022-10-31T00:55:12;7.60;;;3.10;;
71655;SDS011;59497;48.798;8.816;2022-10-31T00:57:37;6.57;;;3.58;;
71655;SDS011;59497;48.798;8.816;2022-10-31T01:00:03;5.60;;;2.67;;
71655;SDS011;59497;48.798;8.816;2022-10-31T01:02:28;6.75;;;2.88;;
71655;SDS011;59497;48.798;8.816;2022-10-31T01:04:53;6.30;;;2.77;;
71655;SDS011;59497;48.798;8.816;2022-10-31T01:07:18;4.80;;;2.60;;
71655;SDS011;59497;48.798;8.816;2022-10-31T01:09:44;6.37;;;2.93;;
71655;SDS011;59497;48.798;8.816;2022-10-31T01:12:09;4.33;;;2.77;;
71655;SDS011;59497;48.798;8.816;2022-10-31T01:14:34;8.93;;;3.50;;
71655;SDS011;59497;48.798;8.816;2022-10-31T01:16:59;6.23;;;3.03;;
71655;SDS011;59497;48.798;8.816;2022-10-31T01:19:24;4.40;;;2.92;;
71655;SDS011;59497;48.798;8.816;2022-10-31T01:21:49;5.67;;;3.60;;
71655;SDS011;59497;48.798;8.816;2022-10-31T01:24:14;3.90;;;2.88;;
71655;SDS011;59497;48.798;8.816;2022-10-31T01:26:40;7.60;;;3.47;;
71655;SDS011;59497;48.798;8.816;2022-10-31T01:29:06;5.90;;;3.00;;
71655;SDS011;59497;48.798;8.816;2022-10-31T01:31:33;5.78;;;3.40;;
71655;SDS011;59497;48.798;8.816;2022-10-31T01:33:58;5.20;;;3.30;;
71655;SDS011;59497;48.798;8.816;2022-10-31T01:36:25;7.53;;;2.80;;
71655;SDS011;59497;48.798;8.816;2022-10-31T01:38:51;6.47;;;2.80;;
71655;SDS011;59497;48.798;8.816;2022-10-31T01:41:20;5.95;;;3.00;;
71655;SDS011;59497;48.798;8.816;2022-10-31T01:43:58;5.68;;;2.70;;
71655;SDS011;59497;48.798;8.816;2022-10-31T01:46:34;5.07;;;2.75;;
71655;SDS011;59497;48.798;8.816;2022-10-31T01:49:01;4.17;;;2.60;;
71655;SDS011;59497;48.798;8.816;2022-10-31T01:51:32;4.28;;;2.85;;
71655;SDS011;59497;48.798;8.816;2022-10-31T01:54:02;5.55;;;3.55;;
71655;SDS011;59497;48.798;8.816;2022-10-31T01:56:29;9.18;;;3.00;;
71655;SDS011;59497;48.798;8.816;2022-10-31T01:58:54;7.33;;;2.97;;
71655;SDS011;59497;48.798;8.816;2022-10-31T02:01:21;7.82;;;2.90;;
71655;SDS011;59497;48.798;8.816;2022-10-31T02:03:47;7.97;;;2.90;;
71655;SDS011;59497;48.798;8.816;2022-10-31T02:06:19;4.67;;;2.30;;
71655;SDS011;59497;48.798;8.816;2022-10-31T02:08:46;4.83;;;2.87;;
71655;SDS011;59497;48.798;8.816;2022-10-31T02:11:11;4.23;;;2.50;;
71655;SDS011;59497;48.798;8.816;2022-10-31T02:13:36;4.37;;;2.37;;
71655;SDS011;59497;48.798;8.816;2022-10-31T02:16:02;5.78;;;2.65;;
71655;SDS011;59497;48.798;8.816;2022-10-31T02:18:28;6.00;;;3.10;;
71655;SDS011;59497;48.798;8.816;2022-10-31T02:23:33;6.47;;;2.55;;
71655;SDS011;59497;48.798;8.816;2022-10-31T02:26:27;5.47;;;2.85;;
71655;SDS011;59497;48.798;8.816;2022-10-31T02:29:05;3.72;;;2.58;;
71655;SDS011;59497;48.798;8.816;2022-10-31T02:31:56;5.55;;;2.63;;
71655;SDS011;59497;48.798;8.816;2022-10-31T02:34:32;6.47;;;3.17;;
71655;SDS011;59497;48.798;8.816;2022-10-31T02:37:01;5.70;;;2.45;;
71655;SDS011;59497;48.798;8.816;2022-10-31T02:39:37;5.80;;;2.58;;
71655;SDS011;59497;48.798;8.816;2022-10-31T02:42:11;3.75;;;2.40;;
71655;SDS011;59497;48.798;8.816;2022-10-31T02:44:45;7.95;;;2.55;;
71655;SDS011;59497;48.798;8.816;2022-10-31T02:47:15;5.03;;;2.60;;
71655;SDS011;59497;48.798;8.816;2022-10-31T02:49:57;7.43;;;2.65;;
71655;SDS011;59497;48.798;8.816;2022-10-31T02:52:25;4.50;;;2.38;;
71655;SDS011;59497;48.798;8.816;2022-10-31T02:54:50;4.72;;;2.67;;
71655;SDS011;59497;48.798;8.816;2022-10-31T02:57:16;4.83;;;3.00;;
71655;SDS011;59497;48.798;8.816;2022-10-31T02:59:44;4.70;;;2.95;;
71655;SDS011;59497;48.798;8.816;2022-10-31T03:04:49;8.20;;;3.30;;
71655;SDS011;59497;48.798;8.816;2022-10-31T03:12:14;6.88;;;2.80;;
71655;SDS011;59497;48.798;8.816;2022-10-31T03:14:51;5.73;;;2.93;;
71655;SDS011;59497;48.798;8.816;2022-10-31T03:19:58;4.50;;;2.60;;
71655;SDS011;59497;48.798;8.816;2022-10-31T03:22:26;4.57;;;2.90;;
71655;SDS011;59497;48.798;8.816;2022-10-31T03:24:53;5.65;;;3.10;;
71655;SDS011;59497;48.798;8.816;2022-10-31T03:27:22;8.23;;;2.90;;
71655;SDS011;59497;48.798;8.816;2022-10-31T03:29:49;6.22;;;2.80;;
71655;SDS011;59497;48.798;8.816;2022-10-31T03:32:19;5.53;;;2.63;;
71655;SDS011;59497;48.798;8.816;2022-10-31T03:34:47;6.60;;;3.05;;
71655;SDS011;59497;48.798;8.816;2022-10-31T03:37:13;5.55;;;2.58;;
71655;SDS011;59497;48.798;8.816;2022-10-31T03:39:40;5.80;;;2.90;;
71655;SDS011;59497;48.798;8.816;2022-10-31T03:42:07;11.77;;;4.05;;
71655;SDS011;59497;48.798;8.816;2022-10-31T03:44:34;6.65;;;3.10;;
71655;SDS011;59497;48.798;8.816;2022-10-31T03:46:59;5.20;;;2.60;;
71655;SDS011;59497;48.798;8.816;2022-10-31T03:49:24;4.53;;;2.83;;
71655;SDS011;59497;48.798;8.816;2022-10-31T03:56:50;5.15;;;2.80;;
71655;SDS011;59497;48.798;8.816;2022-10-31T03:59:25;4.63;;;3.00;;
71655;SDS011;59497;48.798;8.816;2022-10-31T04:01:52;5.03;;;2.47;;
71655;SDS011;59497;48.798;8.816;2022-10-31T04:04:18;6.13;;;2.90;;
71655;SDS011;59497;48.798;8.816;2022-10-31T04:06:44;4.82;;;2.70;;
71655;SDS011;59497;48.798;8.816;2022-10-31T04:09:10;4.20;;;2.60;;
71655;SDS011;59497;48.798;8.816;2022-10-31T04:11:36;5.60;;;2.60;;
71655;SDS011;59497;48.798;8.816;2022-10-31T04:14:03;3.80;;;2.45;;
71655;SDS011;59497;48.798;8.816;2022-10-31T04:16:29;5.53;;;2.40;;
71655;SDS011;59497;48.798;8.816;2022-10-31T04:18:54;7.07;;;3.03;;
71655;SDS011;59497;48.798;8.816;2022-10-31T04:21:20;3.73;;;2.43;;
71655;SDS011;59497;48.798;8.816;2022-10-31T04:23:51;5.22;;;2.70;;
71655;SDS011;59497;48.798;8.816;2022-10-31T04:26:16;4.90;;;3.22;;
71655;SDS011;59497;48.798;8.816;2022-10-31T04:28:41;4.83;;;2.80;;
71655;SDS011;59497;48.798;8.816;2022-10-31T04:31:07;4.70;;;2.42;;
71655;SDS011;59497;48.798;8.816;2022-10-31T04:33:33;6.57;;;2.83;;
71655;SDS011;59497;48.798;8.816;2022-10-31T04:35:58;5.72;;;2.40;;
71655;SDS011;59497;48.798;8.816;2022-10-31T04:38:23;3.80;;;2.50;;
71655;SDS011;59497;48.798;8.816;2022-10-31T04:40:49;5.63;;;3.10;;
71655;SDS011;59497;48.798;8.816;2022-10-31T04:43:14;3.65;;;2.00;;
71655;SDS011;59497;48.798;8.816;2022-10-31T04:45:39;4.40;;;2.50;;
71655;SDS011;59497;48.798;8.816;2022-10-31T04:48:04;6.95;;;2.45;;
71655;SDS011;59497;48.798;8.816;2022-10-31T04:50:29;4.17;;;2.30;;
71655;SDS011;59497;48.798;8.816;2022-10-31T04:52:54;5.05;;;2.60;;
71655;SDS011;59497;48.798;8.816;2022-10-31T04:55:20;5.00;;;2.83;;
71655;SDS011;59497;48.798;8.816;2022-10-31T04:57:46;6.00;;;2.63;;
71655;SDS011;59497;48.798;8.816;2022-10-31T05:00:11;4.63;;;2.27;;
71655;SDS011;59497;48.798;8.816;2022-10-31T05:02:44;4.15;;;2.22;;
71655;SDS011;59497;48.798;8.816;2022-10-31T05:05:09;4.18;;;2.35;;
71655;SDS011;59497;48.798;8.816;2022-10-31T05:07:37;4.10;;;2.20;;
71655;SDS011;59497;48.798;8.816;2022-10-31T05:10:03;5.32;;;2.10;;
71655;SDS011;59497;48.798;8.816;2022-10-31T05:12:28;5.40;;;2.63;;
71655;SDS011;59497;48.798;8.816;2022-10-31T05:14:53;7.35;;;2.17;;
71655;SDS011;59497;48.798;8.816;2022-10-31T05:17:18;4.25;;;2.30;;
71655;SDS011;59497;48.798;8.816;2022-10-31T05:19:43;7.03;;;2.50;;
71655;SDS011;59497;48.798;8.816;2022-10-31T05:22:08;6.03;;;2.40;;
71655;SDS011;59497;48.798;8.816;2022-10-31T05:24:33;5.77;;;2.13;;
71655;SDS011;59497;48.798;8.816;2022-10-31T05:27:01;4.25;;;1.98;;
71655;SDS011;59497;48.798;8.816;2022-10-31T05:29:26;4.53;;;2.23;;
71655;SDS011;59497;48.798;8.816;2022-10-31T05:31:51;7.13;;;2.65;;
71655;SDS011;59497;48.798;8.816;2022-10-31T05:34:16;3.40;;;1.98;;
71655;SDS011;59497;48.798;8.816;2022-10-31T05:36:41;4.60;;;2.00;;
71655;SDS011;59497;48.798;8.816;2022-10-31T05:39:06;5.43;;;2.25;;
71655;SDS011;59497;48.798;8.816;2022-10-31T05:41:31;3.47;;;2.03;;
71655;SDS011;59497;48.798;8.816;2022-10-31T05:43:57;5.97;;;2.13;;
71655;SDS011;59497;48.798;8.816;2022-10-31T05:46:22;3.83;;;2.03;;
71655;SDS011;59497;48.798;8.816;2022-10-31T05:48:47;6.03;;;2.33;;
71655;SDS011;59497;48.798;8.816;2022-10-31T05:51:12;5.07;;;2.33;;
71655;SDS011;59497;48.798;8.816;2022-10-31T05:53:37;3.55;;;1.83;;
71655;SDS011;59497;48.798;8.816;2022-10-31T05:56:02;4.90;;;1.85;;
71655;SDS011;59497;48.798;8.816;2022-10-31T05:58:28;4.70;;;2.10;;
71655;SDS011;59497;48.798;8.816;2022-10-31T06:00:53;6.00;;;2.27;;
71655;SDS011;59497;48.798;8.816;2022-10-31T06:03:18;6.18;;;2.00;;
71655;SDS011;59497;48.798;8.816;2022-10-31T06:05:43;5.38;;;2.10;;
71655;SDS011;59497;48.798;8.816;2022-10-31T06:08:08;4.07;;;2.10;;
71655;SDS011;59497;48.798;8.816;2022-10-31T06:10:33;5.40;;;2.13;;
71655;SDS011;59497;48.798;8.816;2022-10-31T06:12:58;5.10;;;2.10;;
71655;SDS011;59497;48.798;8.816;2022-10-31T06:15:24;3.67;;;1.90;;
71655;SDS011;59497;48.798;8.816;2022-10-31T06:18:02;6.00;;;2.57;;
71655;SDS011;59497;48.798;8.816;2022-10-31T06:20:27;5.22;;;2.30;;
71655;SDS011;59497;48.798;8.816;2022-10-31T06:22:52;6.47;;;3.67;;
71655;SDS011;59497;48.798;8.816;2022-10-31T06:25:18;9.87;;;5.33;;
71655;SDS011;59497;48.798;8.816;2022-10-31T06:27:43;10.68;;;5.90;;
71655;SDS011;59497;48.798;8.816;2022-10-31T06:30:08;11.35;;;6.60;;
71655;SDS011;59497;48.798;8.816;2022-10-31T06:32:33;13.67;;;5.27;;
71655;SDS011;59497;48.798;8.816;2022-10-31T06:34:58;9.00;;;4.47;;
71655;SDS011;59497;48.798;8.816;2022-10-31T06:37:24;6.70;;;3.63;;
71655;SDS011;59497;48.798;8.816;2022-10-31T06:39:49;6.47;;;3.42;;
71655;SDS011;59497;48.798;8.816;2022-10-31T06:42:15;7.73;;;4.10;;
71655;SDS011;59497;48.798;8.816;2022-10-31T06:44:40;9.15;;;4.20;;
71655;SDS011;59497;48.798;8.816;2022-10-31T06:47:05;7.67;;;4.10;;
71655;SDS011;59497;48.798;8.816;2022-10-31T06:49:31;11.43;;;5.07;;
71655;SDS011;59497;48.798;8.816;2022-10-31T06:51:56;12.67;;;5.33;;
71655;SDS011;59497;48.798;8.816;2022-10-31T06:54:21;8.87;;;5.43;;
71655;SDS011;59497;48.798;8.816;2022-10-31T06:56:47;12.53;;;6.10;;
71655;SDS011;59497;48.798;8.816;2022-10-31T06:59:12;10.90;;;6.27;;
71655;SDS011;59497;48.798;8.816;2022-10-31T07:01:37;11.60;;;5.83;;
71655;SDS011;59497;48.798;8.816;2022-10-31T07:04:02;9.57;;;5.28;;
71655;SDS011;59497;48.798;8.816;2022-10-31T07:06:27;14.43;;;6.37;;
71655;SDS011;59497;48.798;8.816;2022-10-31T07:08:53;12.40;;;6.80;;
71655;SDS011;59497;48.798;8.816;2022-10-31T07:11:18;9.30;;;4.78;;
71655;SDS011;59497;48.798;8.816;2022-10-31T07:13:43;8.35;;;4.95;;
71655;SDS011;59497;48.798;8.816;2022-10-31T07:16:08;8.40;;;3.90;;
71655;SDS011;59497;48.798;8.816;2022-10-31T07:18:36;10.67;;;4.13;;
71655;SDS011;59497;48.798;8.816;2022-10-31T07:21:02;8.45;;;3.53;;
71655;SDS011;59497;48.798;8.816;2022-10-31T07:23:27;7.07;;;3.57;;
71655;SDS011;59497;48.798;8.816;2022-10-31T07:25:56;7.77;;;3.60;;
71655;SDS011;59497;48.798;8.816;2022-10-31T07:28:21;7.32;;;4.20;;
71655;SDS011;59497;48.798;8.816;2022-10-31T07:30:50;10.13;;;4.47;;
71655;SDS011;59497;48.798;8.816;2022-10-31T07:33:16;7.07;;;4.17;;
71655;SDS011;59497;48.798;8.816;2022-10-31T07:35:41;10.77;;;4.20;;
71655;SDS011;59497;48.798;8.816;2022-10-31T07:38:06;9.05;;;4.65;;
71655;SDS011;59497;48.798;8.816;2022-10-31T07:40:32;10.73;;;5.30;;
71655;SDS011;59497;48.798;8.816;2022-10-31T07:42:57;9.55;;;4.97;;
71655;SDS011;59497;48.798;8.816;2022-10-31T07:45:22;6.70;;;3.50;;
71655;SDS011;59497;48.798;8.816;2022-10-31T07:47:51;8.77;;;3.60;;
71655;SDS011;59497;48.798;8.816;2022-10-31T07:50:17;6.93;;;3.90;;
71655;SDS011;59497;48.798;8.816;2022-10-31T07:52:43;6.15;;;3.60;;
71655;SDS011;59497;48.798;8.816;2022-10-31T07:55:08;5.67;;;3.10;;
71655;SDS011;59497;48.798;8.816;2022-10-31T07:57:34;5.03;;;3.00;;
71655;SDS011;59497;48.798;8.816;2022-10-31T07:59:59;6.90;;;2.93;;
71655;SDS011;59497;48.798;8.816;2022-10-31T08:02:24;4.93;;;2.93;;
71655;SDS011;59497;48.798;8.816;2022-10-31T08:04:50;5.22;;;3.17;;
71655;SDS011;59497;48.798;8.816;2022-10-31T08:07:15;5.32;;;2.67;;
71655;SDS011;59497;48.798;8.816;2022-10-31T08:09:40;6.90;;;3.50;;
71655;SDS011;59497;48.798;8.816;2022-10-31T08:12:05;5.13;;;3.43;;
71655;SDS011;59497;48.798;8.816;2022-10-31T08:14:31;6.17;;;3.40;;
71655;SDS011;59497;48.798;8.816;2022-10-31T08:16:56;5.67;;;3.37;;
71655;SDS011;59497;48.798;8.816;2022-10-31T08:19:21;5.83;;;3.37;;
71655;SDS011;59497;48.798;8.816;2022-10-31T08:21:46;6.30;;;2.90;;
71655;SDS011;59497;48.798;8.816;2022-10-31T08:24:11;5.27;;;3.00;;
71655;SDS011;59497;48.798;8.816;2022-10-31T08:26:37;7.20;;;2.90;;
71655;SDS011;59497;48.798;8.816;2022-10-31T08:29:02;7.83;;;3.90;;
71655;SDS011;59497;48.798;8.816;2022-10-31T08:31:28;7.83;;;3.43;;
71655;SDS011;59497;48.798;8.816;2022-10-31T08:33:53;6.03;;;3.78;;
71655;SDS011;59497;48.798;8.816;2022-10-31T08:36:19;6.20;;;3.33;;
71655;SDS011;59497;48.798;8.816;2022-10-31T08:38:44;5.10;;;3.43;;
71655;SDS011;59497;48.798;8.816;2022-10-31T08:41:09;6.47;;;4.20;;
71655;SDS011;59497;48.798;8.816;2022-10-31T08:43:34;5.47;;;3.63;;
71655;SDS011;59497;48.798;8.816;2022-10-31T08:45:59;4.90;;;3.90;;
71655;SDS011;59497;48.798;8.816;2022-10-31T08:48:25;6.87;;;3.80;;
71655;SDS011;59497;48.798;8.816;2022-10-31T08:50:50;7.13;;;4.20;;
71655;SDS011;59497;48.798;8.816;2022-10-31T08:53:16;7.23;;;3.60;;
71655;SDS011;59497;48.798;8.816;2022-10-31T08:55:42;5.28;;;3.30;;
71655;SDS011;59497;48.798;8.816;2022-10-31T08:58:26;5.75;;;3.47;;
71655;SDS011;59497;48.798;8.816;2022-10-31T09:00:52;5.20;;;3.30;;
71655;SDS011;59497;48.798;8.816;2022-10-31T09:03:18;6.35;;;3.53;;
71655;SDS011;59497;48.798;8.816;2022-10-31T09:05:43;6.55;;;3.65;;
71655;SDS011;59497;48.798;8.816;2022-10-31T09:08:09;5.63;;;3.27;;
71655;SDS011;59497;48.798;8.816;2022-10-31T09:10:35;5.60;;;3.22;;
71655;SDS011;59497;48.798;8.816;2022-10-31T09:13:02;4.67;;;3.20;;
71655;SDS011;59497;48.798;8.816;2022-10-31T09:15:31;5.30;;;3.47;;
71655;SDS011;59497;48.798;8.816;2022-10-31T09:17:56;6.50;;;3.43;;
71655;SDS011;59497;48.798;8.816;2022-10-31T09:20:21;7.30;;;3.40;;
71655;SDS011;59497;48.798;8.816;2022-10-31T09:22:47;6.30;;;4.00;;
71655;SDS011;59497;48.798;8.816;2022-10-31T09:25:12;6.10;;;4.03;;
71655;SDS011;59497;48.798;8.816;2022-10-31T09:27:37;6.73;;;3.80;;
71655;SDS011;59497;48.798;8.816;2022-10-31T09:30:03;8.03;;;3.70;;
71655;SDS011;59497;48.798;8.816;2022-10-31T09:32:28;6.00;;;3.17;;
71655;SDS011;59497;48.798;8.816;2022-10-31T09:34:54;10.47;;;4.23;;
71655;SDS011;59497;48.798;8.816;2022-10-31T09:37:19;5.83;;;3.20;;
71655;SDS011;59497;48.798;8.816;2022-10-31T09:39:44;7.47;;;3.80;;
71655;SDS011;59497;48.798;8.816;2022-10-31T09:44:58;5.38;;;3.40;;
71655;SDS011;59497;48.798;8.816;2022-10-31T09:52:21;10.80;;;4.07;;
71655;SDS011;59497;48.798;8.816;2022-10-31T09:54:52;10.80;;;4.13;;
71655;SDS011;59497;48.798;8.816;2022-10-31T09:57:22;9.30;;;3.78;;
71655;SDS011;59497;48.798;8.816;2022-10-31T09:59:48;6.15;;;3.80;;
71655;SDS011;59497;48.798;8.816;2022-10-31T10:02:24;5.82;;;3.30;;
71655;SDS011;59497;48.798;8.816;2022-10-31T10:04:53;5.38;;;3.58;;
71655;SDS011;59497;48.798;8.816;2022-10-31T10:09:52;6.82;;;3.00;;
71655;SDS011;59497;48.798;8.816;2022-10-31T10:15:08;5.32;;;2.95;;
71655;SDS011;59497;48.798;8.816;2022-10-31T10:17:42;7.47;;;3.30;;
71655;SDS011;59497;48.798;8.816;2022-10-31T10:20:18;5.03;;;3.00;;
71655;SDS011;59497;48.798;8.816;2022-10-31T10:25:32;7.38;;;2.92;;
71655;SDS011;59497;48.798;8.816;2022-10-31T10:30:34;7.03;;;3.58;;
71655;SDS011;59497;48.798;8.816;2022-10-31T10:33:02;6.10;;;3.33;;
71655;SDS011;59497;48.798;8.816;2022-10-31T10:40:47;5.60;;;3.03;;
71655;SDS011;59497;48.798;8.816;2022-10-31T10:43:20;6.67;;;3.47;;
71655;SDS011;59497;48.798;8.816;2022-10-31T10:48:43;7.25;;;3.10;;
71655;SDS011;59497;48.798;8.816;2022-10-31T10:54:10;8.20;;;3.43;;
71655;SDS011;59497;48.798;8.816;2022-10-31T10:59:04;6.87;;;3.80;;
71655;SDS011;59497;48.798;8.816;2022-10-31T11:01:29;8.00;;;4.50;;
71655;SDS011;59497;48.798;8.816;2022-10-31T11:03:55;7.78;;;4.28;;
71655;SDS011;59497;48.798;8.816;2022-10-31T11:06:21;6.72;;;3.90;;
71655;SDS011;59497;48.798;8.816;2022-10-31T11:08:50;8.50;;;3.67;;
71655;SDS011;59497;48.798;8.816;2022-10-31T11:11:31;6.18;;;3.60;;
71655;SDS011;59497;48.798;8.816;2022-10-31T11:14:02;7.67;;;3.03;;
71655;SDS011;59497;48.798;8.816;2022-10-31T11:16:29;8.70;;;3.90;;
71655;SDS011;59497;48.798;8.816;2022-10-31T11:19:04;9.50;;;3.50;;
71655;SDS011;59497;48.798;8.816;2022-10-31T11:21:31;7.90;;;3.50;;
71655;SDS011;59497;48.798;8.816;2022-10-31T11:24:18;5.47;;;3.50;;
71655;SDS011;59497;48.798;8.816;2022-10-31T11:26:45;7.87;;;3.87;;
71655;SDS011;59497;48.798;8.816;2022-10-31T11:31:41;9.13;;;5.07;;
71655;SDS011;59497;48.798;8.816;2022-10-31T11:34:12;10.07;;;5.20;;
71655;SDS011;59497;48.798;8.816;2022-10-31T11:36:38;7.75;;;6.15;;
71655;SDS011;59497;48.798;8.816;2022-10-31T11:39:05;11.88;;;5.88;;
71655;SDS011;59497;48.798;8.816;2022-10-31T11:46:32;7.32;;;4.35;;
71655;SDS011;59497;48.798;8.816;2022-10-31T11:48:58;6.50;;;3.80;;
71655;SDS011;59497;48.798;8.816;2022-10-31T11:51:25;7.20;;;3.63;;
71655;SDS011;59497;48.798;8.816;2022-10-31T11:53:52;7.33;;;3.50;;
71655;SDS011;59497;48.798;8.816;2022-10-31T11:56:17;5.35;;;4.05;;
71655;SDS011;59497;48.798;8.816;2022-10-31T11:58:43;6.57;;;3.70;;
71655;SDS011;59497;48.798;8.816;2022-10-31T12:01:29;7.43;;;3.90;;
71655;SDS011;59497;48.798;8.816;2022-10-31T12:04:00;10.10;;;4.55;;
71655;SDS011;59497;48.798;8.816;2022-10-31T12:06:29;7.15;;;3.65;;
71655;SDS011;59497;48.798;8.816;2022-10-31T12:08:56;6.32;;;3.45;;
71655;SDS011;59497;48.798;8.816;2022-10-31T12:11:33;8.60;;;3.80;;
71655;SDS011;59497;48.798;8.816;2022-10-31T12:14:08;8.80;;;4.28;;
71655;SDS011;59497;48.798;8.816;2022-10-31T12:16:36;6.13;;;3.77;;
71655;SDS011;59497;48.798;8.816;2022-10-31T12:21:51;9.38;;;4.72;;
71655;SDS011;59497;48.798;8.816;2022-10-31T12:29:47;8.03;;;4.90;;
71655;SDS011;59497;48.798;8.816;2022-10-31T12:44:57;8.73;;;3.92;;
71655;SDS011;59497;48.798;8.816;2022-10-31T12:57:58;6.10;;;3.67;;
71655;SDS011;59497;48.798;8.816;2022-10-31T13:00:25;13.57;;;4.07;;
71655;SDS011;59497;48.798;8.816;2022-10-31T13:02:52;7.53;;;3.83;;
71655;SDS011;59497;48.798;8.816;2022-10-31T13:05:22;7.70;;;5.15;;
71655;SDS011;59497;48.798;8.816;2022-10-31T13:07:54;7.55;;;4.32;;
71655;SDS011;59497;48.798;8.816;2022-10-31T13:10:31;11.95;;;5.00;;
71655;SDS011;59497;48.798;8.816;2022-10-31T13:13:00;8.63;;;3.90;;
71655;SDS011;59497;48.798;8.816;2022-10-31T13:15:27;9.48;;;4.30;;
71655;SDS011;59497;48.798;8.816;2022-10-31T13:17:55;10.48;;;4.30;;
71655;SDS011;59497;48.798;8.816;2022-10-31T13:20:24;8.75;;;4.30;;
71655;SDS011;59497;48.798;8.816;2022-10-31T13:22:56;8.45;;;3.60;;
71655;SDS011;59497;48.798;8.816;2022-10-31T13:25:25;8.60;;;4.50;;
71655;SDS011;59497;48.798;8.816;2022-10-31T13:27:55;8.30;;;4.40;;
71655;SDS011;59497;48.798;8.816;2022-10-31T13:30:22;11.90;;;5.15;;
71655;SDS011;59497;48.798;8.816;2022-10-31T13:33:02;10.30;;;5.53;;
71655;SDS011;59497;48.798;8.816;2022-10-31T13:35:31;10.50;;;4.38;;
71655;SDS011;59497;48.798;8.816;2022-10-31T13:38:08;7.93;;;4.30;;
71655;SDS011;59497;48.798;8.816;2022-10-31T13:40:39;17.98;;;11.40;;
71655;SDS011;59497;48.798;8.816;2022-10-31T13:43:18;30.50;;;16.90;;
71655;SDS011;59497;48.798;8.816;2022-10-31T13:46:01;12.90;;;8.95;;
71655;SDS011;59497;48.798;8.816;2022-10-31T13:50:56;10.75;;;5.07;;
71655;SDS011;59497;48.798;8.816;2022-10-31T13:53:21;8.80;;;4.03;;
71655;SDS011;59497;48.798;8.816;2022-10-31T13:55:48;8.82;;;4.32;;
71655;SDS011;59497;48.798;8.816;2022-10-31T13:58:24;8.13;;;4.07;;
71655;SDS011;59497;48.798;8.816;2022-10-31T14:03:24;6.53;;;3.83;;
71655;SDS011;59497;48.798;8.816;2022-10-31T14:05:53;10.20;;;5.32;;
71655;SDS011;59497;48.798;8.816;2022-10-31T14:08:19;11.68;;;4.90;;
71655;SDS011;59497;48.798;8.816;2022-10-31T14:10:49;10.47;;;4.10;;
71655;SDS011;59497;48.798;8.816;2022-10-31T14:13:22;9.80;;;4.75;;
71655;SDS011;59497;48.798;8.816;2022-10-31T14:15:54;10.40;;;5.28;;
71655;SDS011;59497;48.798;8.816;2022-10-31T14:18:23;9.40;;;4.18;;
71655;SDS011;59497;48.798;8.816;2022-10-31T14:20:49;11.27;;;7.80;;
71655;SDS011;59497;48.798;8.816;2022-10-31T14:23:34;11.80;;;7.10;;
71655;SDS011;59497;48.798;8.816;2022-10-31T14:26:20;6.83;;;4.60;;
71655;SDS011;59497;48.798;8.816;2022-10-31T14:28:46;8.82;;;5.10;;
71655;SDS011;59497;48.798;8.816;2022-10-31T14:31:29;9.88;;;5.68;;
71655;SDS011;59497;48.798;8.816;2022-10-31T14:33:57;16.65;;;9.57;;
71655;SDS011;59497;48.798;8.816;2022-10-31T14:36:25;14.40;;;8.20;;
71655;SDS011;59497;48.798;8.816;2022-10-31T14:39:17;10.85;;;5.45;;
71655;SDS011;59497;48.798;8.816;2022-10-31T14:46:50;9.02;;;5.15;;
71655;SDS011;59497;48.798;8.816;2022-10-31T14:52:02;12.23;;;4.97;;
71655;SDS011;59497;48.798;8.816;2022-10-31T14:54:32;7.63;;;3.90;;
71655;SDS011;59497;48.798;8.816;2022-10-31T14:57:02;8.65;;;4.70;;
71655;SDS011;59497;48.798;8.816;2022-10-31T14:59:31;7.95;;;4.90;;
71655;SDS011;59497;48.798;8.816;2022-10-31T15:01:59;9.50;;;4.93;;
71655;SDS011;59497;48.798;8.816;2022-10-31T15:04:26;10.48;;;4.15;;
71655;SDS011;59497;48.798;8.816;2022-10-31T15:07:26;11.23;;;4.90;;
71655;SDS011;59497;48.798;8.816;2022-10-31T15:09:43;11.38;;;4.55;;
71655;SDS011;59497;48.798;8.816;2022-10-31T15:12:29;9.27;;;4.13;;
71655;SDS011;59497;48.798;8.816;2022-10-31T15:14:55;6.38;;;3.55;;
71655;SDS011;59497;48.798;8.816;2022-10-31T15:17:21;8.07;;;4.13;;
71655;SDS011;59497;48.798;8.816;2022-10-31T15:19:46;7.93;;;4.65;;
71655;SDS011;59497;48.798;8.816;2022-10-31T15:22:19;8.07;;;4.00;;
71655;SDS011;59497;48.798;8.816;2022-10-31T15:24:44;9.43;;;4.03;;
71655;SDS011;59497;48.798;8.816;2022-10-31T15:27:13;7.10;;;3.93;;
71655;SDS011;59497;48.798;8.816;2022-10-31T15:29:47;7.50;;;3.55;;
71655;SDS011;59497;48.798;8.816;2022-10-31T15:32:33;7.93;;;3.78;;
71655;SDS011;59497;48.798;8.816;2022-10-31T15:34:57;6.10;;;4.13;;
71655;SDS011;59497;48.798;8.816;2022-10-31T15:37:23;13.38;;;4.00;;
71655;SDS011;59497;48.798;8.816;2022-10-31T15:39:50;6.33;;;3.33;;
71655;SDS011;59497;48.798;8.816;2022-10-31T15:42:19;7.82;;;4.00;;
71655;SDS011;59497;48.798;8.816;2022-10-31T15:44:46;11.20;;;4.00;;
71655;SDS011;59497;48.798;8.816;2022-10-31T15:47:13;7.40;;;3.87;;
71655;SDS011;59497;48.798;8.816;2022-10-31T15:49:41;8.25;;;3.75;;
71655;SDS011;59497;48.798;8.816;2022-10-31T15:54:32;8.37;;;3.90;;
71655;SDS011;59497;48.798;8.816;2022-10-31T15:56:57;7.83;;;4.03;;
71655;SDS011;59497;48.798;8.816;2022-10-31T15:59:23;6.27;;;3.50;;
71655;SDS011;59497;48.798;8.816;2022-10-31T16:01:59;8.68;;;3.65;;
71655;SDS011;59497;48.798;8.816;2022-10-31T16:04:25;6.70;;;3.50;;
71655;SDS011;59497;48.798;8.816;2022-10-31T16:09:49;8.13;;;4.30;;
71655;SDS011;59497;48.798;8.816;2022-10-31T16:12:15;8.15;;;4.68;;
71655;SDS011;59497;48.798;8.816;2022-10-31T16:14:40;7.17;;;5.30;;
71655;SDS011;59497;48.798;8.816;2022-10-31T16:17:06;13.43;;;4.35;;
71655;SDS011;59497;48.798;8.816;2022-10-31T16:19:36;8.35;;;4.25;;
71655;SDS011;59497;48.798;8.816;2022-10-31T16:22:09;7.43;;;4.67;;
71655;SDS011;59497;48.798;8.816;2022-10-31T16:27:15;8.68;;;4.20;;
71655;SDS011;59497;48.798;8.816;2022-10-31T16:29:42;10.05;;;5.20;;
71655;SDS011;59497;48.798;8.816;2022-10-31T16:37:38;21.13;;;10.88;;
71655;SDS011;59497;48.798;8.816;2022-10-31T16:40:03;13.25;;;7.97;;
71655;SDS011;59497;48.798;8.816;2022-10-31T16:42:28;12.37;;;7.00;;
71655;SDS011;59497;48.798;8.816;2022-10-31T16:44:53;12.35;;;7.45;;